Observations for MIDDLE WALLOP, United Kingdom (EGVP)

EGVP 242036Z 22014KT 9999 -RA BKN007 BKN009 12/10 Q1009 GRN TEMPO 6000 RA GRN
EGVP 242017Z 23014KT 7000 RA BKN006 OVC008 11/10 Q1009 YLO1 TEMPO 9999 -RA BKN007 GRN
EGVP 241950Z 23016KT 9999 -RA BKN007 OVC008 12/10 Q1009 GRN TEMPO 5000 RA BKN006 YLO1   
EGVP 241850Z 22014G24KT 9999 -RA BKN007 BKN017 12/10 Q1009 GRN TEMPO 5000 RA BKN006 YLO1
EGVP 241750Z 23014KT 9999 BKN007 BKN017 13/10 Q1010 GRN TEMPO 5000 RA BKN006 YLO1   
EGVP 241650Z 22014KT 9999 BKN006 OVC007 12/11 Q1010 YLO1 TEMPO BKN007 GRN   
EGVP 241604Z 22014KT 9999 FEW004 BKN005 OVC007 12/11 Q1011 YLO1 TEMPO 4000 -DZ YLO2
EGVP 241550Z 22014KT 6000 4000SE -DZ FEW003 BKN004 OVC005 12/11 Q1011 YLO2 TEMPO 3500 DZ YLO2   
EGVP 241435Z 22014KT 3500 -DZ BKN004 OVC006 12/11 Q1012 YLO2 TEMPO 8000 BR BKN007 GRN   
EGVP 241435Z 22014KT 3500 -DZ BKN004 OVC006 12/11 Q1012 YLO2 TEMPO 8000 BR BKN007 GRN
EGVP 241405Z 21014KT 6000 -DZ OVC006 12/11 Q1013 YLO1 TEMPO 9999 NSW BKN008 GRN
EGVP 241412Z 22014KT 4000 -DZ OVC006 12/11 Q1013 YLO1 TEMPO 9999 NSW BKN007 GRN
EGVP 241350Z 21013KT 9999 OVC008 13/10 Q1013 GRN TEMPO 5000 -DZ GRN 
EGVP 241250Z 20017KT 9999 -DZ BKN012 BKN020 14/10 Q1013 GRN TEMPO 4000 GRN  
EGVP 241229Z 21017KT 9999 SCT020 BKN025 OVC032 14/09 Q1014 WHT BECMG BKN010 GRN
EGVP 241150Z 20011G22KT 9999 FEW020 BKN040 15/05 Q1014 BLU BECMG BKN010 GRN 
EGVP 241050Z 21011KT 9999 FEW022 BKN060 BKN100 15/09 Q1015 BLU BECMG BKN020 WHT 
EGVP 240950Z 22007KT 9999 FEW022 BKN055 BKN080 13/08 Q1016 BLU BECMG BKN020 WHT 
EGVP 240850Z 23006KT 9999 FEW016 BKN060 BKN150 12/08 Q1016 BLU NOSIG
EGVP 240750Z 27007KT 9999 FEW015 BKN065 12/08 Q1016 BLU NOSIG   
EGVP 240650Z 24005KT 9999 FEW013 BKN070 11/08 Q1016 BLU NOSIG   
EGVP 240550Z 24003KT 9999 FEW015 BKN075 11/08 Q1016 BLU 
EGVP 240450Z 27006KT 9999 -RA FEW010 BKN015 11/08 Q1015 WHT 
EGVP 240350Z AUTO 26007KT 9999 // SCT016/// SCT080/// BKN130/// 11/09 Q1015 
EGVP 240250Z AUTO 24007KT 9999 // BKN014/// BKN070/// 11/09 Q1015   
EGVP 240150Z AUTO 23007KT 9999 // FEW015/// BKN070/// 11/09 Q1015   
EGVP 240050Z AUTO 23008KT 9999 // SCT013/// SCT100/// OVC150/// 11/09 Q1015 
EGVP 232350Z 22008KT 9999 BKN014 BKN150 10/08 Q1016 GRN TEMPO 7000 -RA WHT  
EGVP 232250Z 22009KT 9999 BKN017 11/08 Q1016 WHT BECMG BKN010 GRN   
EGVP 232150Z 21008KT 9999 BKN023 11/07 Q1016 WHT BECMG BKN014 GRN   
EGVP 232148Z 21008KT 9999 BKN023 11/07 Q1016 WHT BECMG BKN014 GRN
EGVP 232050Z 21009KT 9999 BKN027 SCT036 BKN150 11/07 Q1017 BLU BECMG BKN020 WHT 
EGVP 231950Z 22008KT 9999 BKN033 11/07 Q1017 BLU BECMG BKN022 WHT